sensor_id;sensor_type;location;lat;lon;timestamp;pressure;altitude;pressure_sealevel;temperature;humidity
36798;BME280;22748;8.426;99.512;2023-09-19T00:01:21;100677.47;;;29.62;67.31
36798;BME280;22748;8.426;99.512;2023-09-19T00:03:52;100681.19;;;29.61;67.46
36798;BME280;22748;8.426;99.512;2023-09-19T00:06:24;100681.19;;;29.61;67.13
36798;BME280;22748;8.426;99.512;2023-09-19T00:08:56;100683.88;;;29.61;67.68
36798;BME280;22748;8.426;99.512;2023-09-19T00:11:29;100686.19;;;29.58;67.45
36798;BME280;22748;8.426;99.512;2023-09-19T00:14:02;100688.03;;;29.57;67.61
36798;BME280;22748;8.426;99.512;2023-09-19T00:16:34;100692.38;;;29.58;67.77
36798;BME280;22748;8.426;99.512;2023-09-19T00:19:17;100690.72;;;29.57;67.82
36798;BME280;22748;8.426;99.512;2023-09-19T00:21:53;100693.22;;;29.52;68.17
36798;BME280;22748;8.426;99.512;2023-09-19T00:24:25;100683.06;;;29.54;68.13
36798;BME280;22748;8.426;99.512;2023-09-19T00:26:57;100692.38;;;29.58;68.30
36798;BME280;22748;8.426;99.512;2023-09-19T00:29:29;100691.53;;;29.64;68.38
36798;BME280;22748;8.426;99.512;2023-09-19T00:32:01;100709.31;;;29.65;68.33
36798;BME280;22748;8.426;99.512;2023-09-19T00:34:32;100711.59;;;29.68;68.02
36798;BME280;22748;8.426;99.512;2023-09-19T00:37:09;100717.41;;;29.65;68.54
36798;BME280;22748;8.426;99.512;2023-09-19T00:39:43;100724.03;;;29.69;68.39
36798;BME280;22748;8.426;99.512;2023-09-19T00:42:21;100725.72;;;29.70;68.62
36798;BME280;22748;8.426;99.512;2023-09-19T00:44:54;100737.09;;;29.72;68.82
36798;BME280;22748;8.426;99.512;2023-09-19T00:47:26;100738.31;;;29.70;68.58
36798;BME280;22748;8.426;99.512;2023-09-19T00:49:58;100742.47;;;29.72;68.46
36798;BME280;22748;8.426;99.512;2023-09-19T00:52:31;100749.50;;;29.73;68.78
36798;BME280;22748;8.426;99.512;2023-09-19T00:55:09;100748.25;;;29.76;68.78
36798;BME280;22748;8.426;99.512;2023-09-19T00:57:43;100754.44;;;29.77;68.64
36798;BME280;22748;8.426;99.512;2023-09-19T01:00:15;100753.84;;;29.74;68.43
36798;BME280;22748;8.426;99.512;2023-09-19T01:02:48;100762.31;;;29.78;68.72
36798;BME280;22748;8.426;99.512;2023-09-19T01:05:19;100764.81;;;29.80;68.72
36798;BME280;22748;8.426;99.512;2023-09-19T01:07:56;100773.91;;;29.79;68.68
36798;BME280;22748;8.426;99.512;2023-09-19T01:10:26;100774.34;;;29.76;68.63
36798;BME280;22748;8.426;99.512;2023-09-19T01:13:03;100780.75;;;29.74;68.81
36798;BME280;22748;8.426;99.512;2023-09-19T01:15:42;100787.81;;;29.76;68.60
36798;BME280;22748;8.426;99.512;2023-09-19T01:18:21;100792.97;;;29.77;68.49
36798;BME280;22748;8.426;99.512;2023-09-19T01:21:00;100781.38;;;29.77;68.48
36798;BME280;22748;8.426;99.512;2023-09-19T01:23:55;100784.28;;;29.82;69.10
36798;BME280;22748;8.426;99.512;2023-09-19T01:27:17;100797.28;;;29.85;69.06
36798;BME280;22748;8.426;99.512;2023-09-19T01:30:19;100803.31;;;29.87;68.63
36798;BME280;22748;8.426;99.512;2023-09-19T01:32:56;100808.03;;;29.91;68.87
36798;BME280;22748;8.426;99.512;2023-09-19T01:35:28;100811.78;;;29.97;68.98
36798;BME280;22748;8.426;99.512;2023-09-19T01:37:58;100813.22;;;30.00;68.54
36798;BME280;22748;8.426;99.512;2023-09-19T01:40:28;100810.72;;;29.98;68.91
36798;BME280;22748;8.426;99.512;2023-09-19T01:43:00;100813.63;;;30.03;68.73
36798;BME280;22748;8.426;99.512;2023-09-19T01:45:46;100811.91;;;30.09;68.86
36798;BME280;22748;8.426;99.512;2023-09-19T01:48:23;100804.88;;;30.14;68.46
36798;BME280;22748;8.426;99.512;2023-09-19T01:51:00;100805.25;;;30.18;68.10
36798;BME280;22748;8.426;99.512;2023-09-19T01:53:50;100814.19;;;30.19;68.49
36798;BME280;22748;8.426;99.512;2023-09-19T01:56:34;100818.09;;;30.23;68.14
36798;BME280;22748;8.426;99.512;2023-09-19T01:59:10;100821.00;;;30.21;68.31
36798;BME280;22748;8.426;99.512;2023-09-19T02:01:56;100813.09;;;30.26;67.72
36798;BME280;22748;8.426;99.512;2023-09-19T02:04:34;100821.00;;;30.28;67.53
36798;BME280;22748;8.426;99.512;2023-09-19T02:07:05;100817.66;;;30.32;67.43
36798;BME280;22748;8.426;99.512;2023-09-19T02:09:36;100815.59;;;30.34;67.65
36798;BME280;22748;8.426;99.512;2023-09-19T02:12:07;100818.44;;;30.40;66.84
36798;BME280;22748;8.426;99.512;2023-09-19T02:14:39;100823.81;;;30.46;66.41
36798;BME280;22748;8.426;99.512;2023-09-19T02:17:13;100827.13;;;30.48;66.20
36798;BME280;22748;8.426;99.512;2023-09-19T02:19:44;100835.41;;;30.53;65.59
36798;BME280;22748;8.426;99.512;2023-09-19T02:22:21;100842.84;;;30.58;64.97
36798;BME280;22748;8.426;99.512;2023-09-19T02:24:52;100850.28;;;30.63;65.26
36798;BME280;22748;8.426;99.512;2023-09-19T02:27:27;100854.56;;;30.70;64.97
36798;BME280;22748;8.426;99.512;2023-09-19T02:30:05;100857.66;;;30.74;64.56
36798;BME280;22748;8.426;99.512;2023-09-19T02:32:46;100868.03;;;30.77;64.89
36798;BME280;22748;8.426;99.512;2023-09-19T02:35:18;100858.06;;;30.78;64.47
36798;BME280;22748;8.426;99.512;2023-09-19T02:37:56;100864.28;;;30.78;64.52
36798;BME280;22748;8.426;99.512;2023-09-19T02:40:28;100863.44;;;30.84;64.44
36798;BME280;22748;8.426;99.512;2023-09-19T02:43:00;100863.00;;;30.87;64.18
36798;BME280;22748;8.426;99.512;2023-09-19T02:45:32;100860.09;;;30.89;64.37
36798;BME280;22748;8.426;99.512;2023-09-19T02:48:06;100868.75;;;30.98;64.18
36798;BME280;22748;8.426;99.512;2023-09-19T02:50:37;100861.06;;;31.01;64.07
36798;BME280;22748;8.426;99.512;2023-09-19T02:53:11;100869.38;;;31.00;64.21
36798;BME280;22748;8.426;99.512;2023-09-19T02:55:42;100873.28;;;31.04;64.14
36798;BME280;22748;8.426;99.512;2023-09-19T02:58:13;100870.34;;;31.05;63.75
36798;BME280;22748;8.426;99.512;2023-09-19T03:00:43;100876.81;;;31.04;63.77
36798;BME280;22748;8.426;99.512;2023-09-19T03:03:25;100867.06;;;31.03;63.98
36798;BME280;22748;8.426;99.512;2023-09-19T03:06:04;100869.13;;;31.08;63.98
36798;BME280;22748;8.426;99.512;2023-09-19T03:08:37;100867.03;;;31.10;63.82
36798;BME280;22748;8.426;99.512;2023-09-19T03:11:10;100864.91;;;31.19;63.82
36798;BME280;22748;8.426;99.512;2023-09-19T03:13:43;100871.72;;;31.21;63.81
36798;BME280;22748;8.426;99.512;2023-09-19T03:16:13;100871.47;;;31.23;63.89
36798;BME280;22748;8.426;99.512;2023-09-19T03:18:46;100865.88;;;31.24;63.70
36798;BME280;22748;8.426;99.512;2023-09-19T03:21:17;100869.38;;;31.25;63.07
36798;BME280;22748;8.426;99.512;2023-09-19T03:23:49;100861.09;;;31.26;63.06
36798;BME280;22748;8.426;99.512;2023-09-19T03:26:19;100874.97;;;31.30;62.63
36798;BME280;22748;8.426;99.512;2023-09-19T03:28:50;100868.56;;;31.24;62.71
36798;BME280;22748;8.426;99.512;2023-09-19T03:31:22;100870.41;;;31.30;63.05
36798;BME280;22748;8.426;99.512;2023-09-19T03:33:55;100866.44;;;31.33;63.05
36798;BME280;22748;8.426;99.512;2023-09-19T03:36:30;100868.50;;;31.31;62.53
36798;BME280;22748;8.426;99.512;2023-09-19T03:39:01;100868.91;;;31.34;62.52
36798;BME280;22748;8.426;99.512;2023-09-19T03:41:32;100867.03;;;31.35;62.26
36798;BME280;22748;8.426;99.512;2023-09-19T03:44:05;100864.28;;;31.42;61.98
36798;BME280;22748;8.426;99.512;2023-09-19T03:46:35;100858.03;;;31.48;61.94
36798;BME280;22748;8.426;99.512;2023-09-19T03:49:08;100855.47;;;31.53;61.83
36798;BME280;22748;8.426;99.512;2023-09-19T03:51:38;100857.31;;;31.59;61.43
36798;BME280;22748;8.426;99.512;2023-09-19T03:54:10;100852.91;;;31.65;61.26
36798;BME280;22748;8.426;99.512;2023-09-19T03:56:41;100850.81;;;31.67;61.22
36798;BME280;22748;8.426;99.512;2023-09-19T03:59:12;100852.22;;;31.69;61.37
36798;BME280;22748;8.426;99.512;2023-09-19T04:01:42;100845.94;;;31.75;61.33
36798;BME280;22748;8.426;99.512;2023-09-19T04:04:18;100843.25;;;31.75;61.33
36798;BME280;22748;8.426;99.512;2023-09-19T04:06:51;100846.31;;;31.79;61.38
36798;BME280;22748;8.426;99.512;2023-09-19T04:09:22;100832.38;;;31.82;61.03
36798;BME280;22748;8.426;99.512;2023-09-19T04:11:53;100834.84;;;31.84;61.07
36798;BME280;22748;8.426;99.512;2023-09-19T04:14:24;100829.44;;;31.84;60.45
36798;BME280;22748;8.426;99.512;2023-09-19T04:16:56;100826.88;;;31.89;60.64
36798;BME280;22748;8.426;99.512;2023-09-19T04:19:29;100822.69;;;31.93;60.83
36798;BME280;22748;8.426;99.512;2023-09-19T04:22:01;100823.47;;;32.00;61.12
36798;BME280;22748;8.426;99.512;2023-09-19T04:24:32;100821.50;;;32.07;60.76
36798;BME280;22748;8.426;99.512;2023-09-19T04:27:04;100820.00;;;32.11;60.77
36798;BME280;22748;8.426;99.512;2023-09-19T04:29:35;100821.19;;;32.15;60.41
36798;BME280;22748;8.426;99.512;2023-09-19T04:32:06;100817.09;;;32.13;60.17
36798;BME280;22748;8.426;99.512;2023-09-19T04:34:39;100815.19;;;32.13;60.12
36798;BME280;22748;8.426;99.512;2023-09-19T04:37:09;100812.88;;;32.17;60.26
36798;BME280;22748;8.426;99.512;2023-09-19T04:39:42;100807.16;;;32.25;59.77
36798;BME280;22748;8.426;99.512;2023-09-19T04:42:15;100799.41;;;32.29;59.49
36798;BME280;22748;8.426;99.512;2023-09-19T04:44:46;100801.06;;;32.30;59.15
36798;BME280;22748;8.426;99.512;2023-09-19T04:47:20;100796.97;;;32.27;59.11
36798;BME280;22748;8.426;99.512;2023-09-19T04:49:53;100796.72;;;32.29;59.01
36798;BME280;22748;8.426;99.512;2023-09-19T04:52:24;100787.09;;;32.33;58.85
36798;BME280;22748;8.426;99.512;2023-09-19T04:54:56;100775.84;;;32.36;59.06
36798;BME280;22748;8.426;99.512;2023-09-19T04:57:27;100776.06;;;32.34;59.19
36798;BME280;22748;8.426;99.512;2023-09-19T04:59:59;100769.84;;;32.34;59.41
36798;BME280;22748;8.426;99.512;2023-09-19T05:02:34;100781.69;;;32.33;59.71
36798;BME280;22748;8.426;99.512;2023-09-19T05:05:09;100766.88;;;32.35;59.30
36798;BME280;22748;8.426;99.512;2023-09-19T05:07:45;100758.09;;;32.40;59.17
36798;BME280;22748;8.426;99.512;2023-09-19T05:10:17;100757.41;;;32.45;59.19
36798;BME280;22748;8.426;99.512;2023-09-19T05:12:49;100748.03;;;32.47;59.11
36798;BME280;22748;8.426;99.512;2023-09-19T05:15:24;100750.66;;;32.54;59.17
36798;BME280;22748;8.426;99.512;2023-09-19T05:17:55;100748.28;;;32.57;58.94
36798;BME280;22748;8.426;99.512;2023-09-19T05:20:29;100738.66;;;32.62;58.68
36798;BME280;22748;8.426;99.512;2023-09-19T05:23:02;100734.44;;;32.66;58.43
36798;BME280;22748;8.426;99.512;2023-09-19T05:25:36;100722.34;;;32.68;58.21
36798;BME280;22748;8.426;99.512;2023-09-19T05:28:14;100711.53;;;32.68;58.14
36798;BME280;22748;8.426;99.512;2023-09-19T05:30:44;100704.84;;;32.71;58.17
36798;BME280;22748;8.426;99.512;2023-09-19T05:33:15;100694.03;;;32.71;58.12
36798;BME280;22748;8.426;99.512;2023-09-19T05:35:54;100693.56;;;32.74;57.95
36798;BME280;22748;8.426;99.512;2023-09-19T05:38:25;100692.25;;;32.76;58.20
36798;BME280;22748;8.426;99.512;2023-09-19T05:40:56;100697.78;;;32.82;58.12
36798;BME280;22748;8.426;99.512;2023-09-19T05:43:26;100685.22;;;32.75;57.51
36798;BME280;22748;8.426;99.512;2023-09-19T05:45:57;100686.41;;;32.79;57.57
36798;BME280;22748;8.426;99.512;2023-09-19T05:48:30;100665.09;;;32.83;57.35
36798;BME280;22748;8.426;99.512;2023-09-19T05:51:03;100660.03;;;32.87;57.29
36798;BME280;22748;8.426;99.512;2023-09-19T05:53:36;100655.44;;;32.87;57.22
36798;BME280;22748;8.426;99.512;2023-09-19T05:56:08;100663.09;;;32.90;57.12
36798;BME280;22748;8.426;99.512;2023-09-19T05:58:41;100658.25;;;32.92;56.95
36798;BME280;22748;8.426;99.512;2023-09-19T06:01:12;100654.97;;;32.90;57.10
36798;BME280;22748;8.426;99.512;2023-09-19T06:03:43;100645.44;;;32.88;57.27
36798;BME280;22748;8.426;99.512;2023-09-19T06:06:15;100627.47;;;32.93;56.81
36798;BME280;22748;8.426;99.512;2023-09-19T06:08:46;100635.09;;;32.96;57.04
36798;BME280;22748;8.426;99.512;2023-09-19T06:11:19;100632.75;;;33.00;56.58
36798;BME280;22748;8.426;99.512;2023-09-19T06:13:55;100651.59;;;33.07;57.02
36798;BME280;22748;8.426;99.512;2023-09-19T06:16:29;100651.69;;;33.12;56.65
36798;BME280;22748;8.426;99.512;2023-09-19T06:19:04;100638.41;;;33.10;56.57
36798;BME280;22748;8.426;99.512;2023-09-19T06:21:38;100632.66;;;33.07;57.22
36798;BME280;22748;8.426;99.512;2023-09-19T06:24:09;100621.94;;;33.00;57.16
36798;BME280;22748;8.426;99.512;2023-09-19T06:26:39;100616.50;;;33.00;56.39
36798;BME280;22748;8.426;99.512;2023-09-19T06:29:12;100627.56;;;32.98;56.87
36798;BME280;22748;8.426;99.512;2023-09-19T06:31:44;100634.03;;;32.97;56.68
36798;BME280;22748;8.426;99.512;2023-09-19T06:34:16;100629.09;;;32.94;56.83
36798;BME280;22748;8.426;99.512;2023-09-19T06:36:51;100646.41;;;32.93;57.26
36798;BME280;22748;8.426;99.512;2023-09-19T06:39:23;100640.66;;;32.78;58.00
36798;BME280;22748;8.426;99.512;2023-09-19T06:41:54;100655.81;;;32.67;58.21
36798;BME280;22748;8.426;99.512;2023-09-19T06:44:24;100661.25;;;32.37;59.88
36798;BME280;22748;8.426;99.512;2023-09-19T06:46:58;100652.16;;;32.20;60.77
36798;BME280;22748;8.426;99.512;2023-09-19T06:49:29;100670.97;;;31.96;62.28
36798;BME280;22748;8.426;99.512;2023-09-19T06:52:02;100681.38;;;31.25;65.38
36798;BME280;22748;8.426;99.512;2023-09-19T06:54:34;100703.59;;;30.45;67.07
36798;BME280;22748;8.426;99.512;2023-09-19T06:57:08;100718.28;;;30.49;66.64
36798;BME280;22748;8.426;99.512;2023-09-19T06:59:39;100734.16;;;30.64;66.31
36798;BME280;22748;8.426;99.512;2023-09-19T07:02:10;100738.22;;;30.73;65.68
36798;BME280;22748;8.426;99.512;2023-09-19T07:04:41;100747.59;;;30.71;64.79
36798;BME280;22748;8.426;99.512;2023-09-19T07:07:18;100767.38;;;30.58;65.12
36798;BME280;22748;8.426;99.512;2023-09-19T07:09:48;100768.44;;;30.50;64.00
36798;BME280;22748;8.426;99.512;2023-09-19T07:12:21;100749.06;;;30.67;64.09
36798;BME280;22748;8.426;99.512;2023-09-19T07:14:52;100746.50;;;30.47;62.63
36798;BME280;22748;8.426;99.512;2023-09-19T07:17:22;100736.03;;;30.25;61.90
36798;BME280;22748;8.426;99.512;2023-09-19T07:19:58;100713.84;;;30.30;62.61
36798;BME280;22748;8.426;99.512;2023-09-19T07:22:37;100719.31;;;30.48;63.27
36798;BME280;22748;8.426;99.512;2023-09-19T07:25:10;100723.59;;;30.63;62.97
36798;BME280;22748;8.426;99.512;2023-09-19T07:27:42;100746.53;;;30.72;63.35
36798;BME280;22748;8.426;99.512;2023-09-19T07:30:12;100751.03;;;30.78;62.88
36798;BME280;22748;8.426;99.512;2023-09-19T07:32:44;100758.91;;;30.86;63.08
36798;BME280;22748;8.426;99.512;2023-09-19T07:35:17;100771.94;;;30.89;63.50
36798;BME280;22748;8.426;99.512;2023-09-19T07:37:52;100764.59;;;30.96;63.29
36798;BME280;22748;8.426;99.512;2023-09-19T07:40:24;100754.22;;;31.00;63.43
36798;BME280;22748;8.426;99.512;2023-09-19T07:42:57;100738.63;;;31.02;63.31
36798;BME280;22748;8.426;99.512;2023-09-19T07:45:28;100724.94;;;31.04;63.59
36798;BME280;22748;8.426;99.512;2023-09-19T07:47:59;100716.41;;;31.07;63.41
36798;BME280;22748;8.426;99.512;2023-09-19T07:50:32;100700.59;;;31.10;63.51
36798;BME280;22748;8.426;99.512;2023-09-19T07:53:06;100696.31;;;30.78;64.25
36798;BME280;22748;8.426;99.512;2023-09-19T07:55:36;100685.50;;;30.21;66.76
36798;BME280;22748;8.426;99.512;2023-09-19T07:58:09;100683.59;;;30.28;66.11
36798;BME280;22748;8.426;99.512;2023-09-19T08:00:44;100670.16;;;30.21;66.60
36798;BME280;22748;8.426;99.512;2023-09-19T08:03:21;100652.03;;;30.03;67.18
36798;BME280;22748;8.426;99.512;2023-09-19T08:05:51;100651.75;;;30.11;66.97
36798;BME280;22748;8.426;99.512;2023-09-19T08:08:25;100646.00;;;29.69;68.01
36798;BME280;22748;8.426;99.512;2023-09-19T08:10:56;100639.34;;;29.65;68.72
36798;BME280;22748;8.426;99.512;2023-09-19T08:13:28;100625.00;;;29.85;68.14
36798;BME280;22748;8.426;99.512;2023-09-19T08:15:58;100622.56;;;30.08;67.08
36798;BME280;22748;8.426;99.512;2023-09-19T08:18:32;100628.31;;;30.19;67.15
36798;BME280;22748;8.426;99.512;2023-09-19T08:21:05;100626.41;;;30.26;66.72
36798;BME280;22748;8.426;99.512;2023-09-19T08:23:40;100612.69;;;30.34;66.75
36798;BME280;22748;8.426;99.512;2023-09-19T08:26:12;100601.25;;;30.39;66.43
36798;BME280;22748;8.426;99.512;2023-09-19T08:28:43;100590.97;;;30.29;66.85
36798;BME280;22748;8.426;99.512;2023-09-19T08:31:14;100573.50;;;30.38;66.70
36798;BME280;22748;8.426;99.512;2023-09-19T08:33:44;100563.00;;;30.48;66.68
36798;BME280;22748;8.426;99.512;2023-09-19T08:36:19;100564.22;;;30.52;65.95
36798;BME280;22748;8.426;99.512;2023-09-19T08:38:52;100566.66;;;30.61;65.97
36798;BME280;22748;8.426;99.512;2023-09-19T08:41:30;100558.56;;;30.61;65.99
36798;BME280;22748;8.426;99.512;2023-09-19T08:44:02;100554.16;;;30.66;65.97
36798;BME280;22748;8.426;99.512;2023-09-19T08:46:35;100536.25;;;30.72;65.90
36798;BME280;22748;8.426;99.512;2023-09-19T08:49:16;100543.06;;;30.74;65.96
36798;BME280;22748;8.426;99.512;2023-09-19T08:51:58;100539.13;;;30.77;65.86
36798;BME280;22748;8.426;99.512;2023-09-19T08:54:37;100539.13;;;30.77;65.92
36798;BME280;22748;8.426;99.512;2023-09-19T08:57:09;100539.13;;;30.77;65.73
36798;BME280;22748;8.426;99.512;2023-09-19T08:59:48;100548.25;;;30.76;65.51
36798;BME280;22748;8.426;99.512;2023-09-19T09:02:22;100547.03;;;30.72;65.57
36798;BME280;22748;8.426;99.512;2023-09-19T09:04:56;100545.41;;;30.71;65.92
36798;BME280;22748;8.426;99.512;2023-09-19T09:07:31;100550.09;;;30.57;65.67
36798;BME280;22748;8.426;99.512;2023-09-19T09:10:08;100566.50;;;30.55;65.98
36798;BME280;22748;8.426;99.512;2023-09-19T09:12:40;100566.31;;;30.50;66.10
36798;BME280;22748;8.426;99.512;2023-09-19T09:15:12;100566.91;;;30.52;65.68
36798;BME280;22748;8.426;99.512;2023-09-19T09:17:47;100572.16;;;30.47;65.52
36798;BME280;22748;8.426;99.512;2023-09-19T09:20:20;100575.28;;;30.44;65.43
36798;BME280;22748;8.426;99.512;2023-09-19T09:22:57;100579.19;;;30.48;65.50
36798;BME280;22748;8.426;99.512;2023-09-19T09:25:51;100590.22;;;30.47;65.57
36798;BME280;22748;8.426;99.512;2023-09-19T09:28:32;100605.09;;;30.49;65.78
36798;BME280;22748;8.426;99.512;2023-09-19T09:31:23;100614.63;;;30.52;66.21
36798;BME280;22748;8.426;99.512;2023-09-19T09:33:54;100617.69;;;30.55;66.54
36798;BME280;22748;8.426;99.512;2023-09-19T09:36:40;100616.03;;;30.54;66.40
36798;BME280;22748;8.426;99.512;2023-09-19T09:39:11;100621.59;;;30.60;66.32
36798;BME280;22748;8.426;99.512;2023-09-19T09:42:02;100628.47;;;30.55;66.20
36798;BME280;22748;8.426;99.512;2023-09-19T09:44:41;100625.53;;;30.57;65.89
36798;BME280;22748;8.426;99.512;2023-09-19T09:47:12;100632.97;;;30.62;66.33
36798;BME280;22748;8.426;99.512;2023-09-19T09:49:56;100635.84;;;30.67;66.30
36798;BME280;22748;8.426;99.512;2023-09-19T09:52:45;100625.88;;;30.67;66.49
36798;BME280;22748;8.426;99.512;2023-09-19T09:55:16;100637.06;;;30.71;66.25
36798;BME280;22748;8.426;99.512;2023-09-19T10:00:53;100618.53;;;30.74;65.87
36798;BME280;22748;8.426;99.512;2023-09-19T10:03:36;100620.63;;;30.72;65.77
36798;BME280;22748;8.426;99.512;2023-09-19T10:06:12;100616.69;;;30.75;66.05
36798;BME280;22748;8.426;99.512;2023-09-19T10:09:10;100615.03;;;30.74;65.95
36798;BME280;22748;8.426;99.512;2023-09-19T10:11:43;100616.69;;;30.75;65.61
36798;BME280;22748;8.426;99.512;2023-09-19T10:14:16;100611.31;;;30.75;65.69
36798;BME280;22748;8.426;99.512;2023-09-19T10:16:54;100615.03;;;30.74;65.91
36798;BME280;22748;8.426;99.512;2023-09-19T10:19:36;100623.34;;;30.72;65.59
36798;BME280;22748;8.426;99.512;2023-09-19T10:22:14;100630.63;;;30.47;65.78
36798;BME280;22748;8.426;99.512;2023-09-19T10:24:49;100628.59;;;30.42;66.03
36798;BME280;22748;8.426;99.512;2023-09-19T10:27:22;100630.19;;;30.50;66.63
36798;BME280;22748;8.426;99.512;2023-09-19T10:29:58;100630.19;;;30.50;66.19
36798;BME280;22748;8.426;99.512;2023-09-19T10:32:31;100622.91;;;30.50;66.28
36798;BME280;22748;8.426;99.512;2023-09-19T10:35:06;100621.69;;;30.46;66.07
36798;BME280;22748;8.426;99.512;2023-09-19T10:37:38;100626.47;;;30.44;65.61
36798;BME280;22748;8.426;99.512;2023-09-19T10:40:11;100633.88;;;30.24;66.40
36798;BME280;22748;8.426;99.512;2023-09-19T10:42:48;100633.03;;;30.30;66.18
36798;BME280;22748;8.426;99.512;2023-09-19T10:45:23;100629.00;;;30.39;66.32
36798;BME280;22748;8.426;99.512;2023-09-19T10:47:55;100638.66;;;30.22;66.34
36798;BME280;22748;8.426;99.512;2023-09-19T10:50:27;100652.16;;;30.15;66.48
36798;BME280;22748;8.426;99.512;2023-09-19T10:53:04;100660.19;;;30.28;66.69
36798;BME280;22748;8.426;99.512;2023-09-19T10:55:37;100666.94;;;30.38;66.28
36798;BME280;22748;8.426;99.512;2023-09-19T10:58:09;100667.97;;;30.43;66.09
36798;BME280;22748;8.426;99.512;2023-09-19T11:01:04;100670.81;;;30.48;66.16
36798;BME280;22748;8.426;99.512;2023-09-19T11:03:40;100665.00;;;30.51;66.53
36798;BME280;22748;8.426;99.512;2023-09-19T11:06:15;100658.41;;;30.47;66.66
36798;BME280;22748;8.426;99.512;2023-09-19T11:09:03;100654.63;;;30.48;66.80
36798;BME280;22748;8.426;99.512;2023-09-19T11:11:52;100653.00;;;30.47;67.18
36798;BME280;22748;8.426;99.512;2023-09-19T11:14:41;100654.63;;;30.48;66.82
36798;BME280;22748;8.426;99.512;2023-09-19T11:17:44;100659.88;;;30.43;67.31
36798;BME280;22748;8.426;99.512;2023-09-19T11:20:31;100667.50;;;30.46;67.03
36798;BME280;22748;8.426;99.512;2023-09-19T11:23:27;100662.72;;;30.48;67.08
36798;BME280;22748;8.426;99.512;2023-09-19T11:25:59;100658.81;;;30.44;67.28
36798;BME280;22748;8.426;99.512;2023-09-19T11:28:31;100660.31;;;30.40;66.97
36798;BME280;22748;8.426;99.512;2023-09-19T11:34:48;100649.19;;;30.30;67.31
36798;BME280;22748;8.426;99.512;2023-09-19T11:40:46;100651.44;;;30.33;67.31
36798;BME280;22748;8.426;99.512;2023-09-19T11:43:38;100658.91;;;30.31;67.74
36798;BME280;22748;8.426;99.512;2023-09-19T11:46:09;100670.53;;;30.31;67.23
36798;BME280;22748;8.426;99.512;2023-09-19T11:48:43;100676.75;;;30.32;67.38
36798;BME280;22748;8.426;99.512;2023-09-19T11:51:21;100676.75;;;30.32;67.72
36798;BME280;22748;8.426;99.512;2023-09-19T11:53:55;100675.69;;;30.33;67.92
36798;BME280;22748;8.426;99.512;2023-09-19T11:56:30;100676.97;;;30.30;68.14
36798;BME280;22748;8.426;99.512;2023-09-19T11:59:02;100690.63;;;30.29;68.07
36798;BME280;22748;8.426;99.512;2023-09-19T12:01:43;100690.00;;;30.27;68.16
36798;BME280;22748;8.426;99.512;2023-09-19T12:04:45;100686.72;;;30.25;67.68
36798;BME280;22748;8.426;99.512;2023-09-19T12:07:43;100694.19;;;30.23;68.20
36798;BME280;22748;8.426;99.512;2023-09-19T12:10:17;100694.41;;;30.21;67.81
36798;BME280;22748;8.426;99.512;2023-09-19T12:12:50;100694.19;;;30.23;67.79
36798;BME280;22748;8.426;99.512;2023-09-19T12:15:26;100695.22;;;30.22;68.17
36798;BME280;22748;8.426;99.512;2023-09-19T12:18:03;100699.16;;;30.19;67.76
36798;BME280;22748;8.426;99.512;2023-09-19T12:20:45;100693.19;;;30.17;67.82
36798;BME280;22748;8.426;99.512;2023-09-19T12:23:20;100688.44;;;30.12;68.26
36798;BME280;22748;8.426;99.512;2023-09-19T12:25:51;100690.53;;;30.10;68.13
36798;BME280;22748;8.426;99.512;2023-09-19T12:28:27;100698.00;;;30.08;67.94
36798;BME280;22748;8.426;99.512;2023-09-19T12:30:58;100706.06;;;30.08;67.97
36798;BME280;22748;8.426;99.512;2023-09-19T12:33:36;100694.44;;;30.14;68.20
36798;BME280;22748;8.426;99.512;2023-09-19T12:36:20;100704.56;;;30.19;67.85
36798;BME280;22748;8.426;99.512;2023-09-19T12:38:56;100707.66;;;30.23;67.38
36798;BME280;22748;8.426;99.512;2023-09-19T12:41:27;100703.69;;;30.25;67.50
36798;BME280;22748;8.426;99.512;2023-09-19T12:43:58;100704.53;;;30.26;67.25
36798;BME280;22748;8.426;99.512;2023-09-19T12:46:28;100703.47;;;30.27;67.02
36798;BME280;22748;8.426;99.512;2023-09-19T12:49:19;100705.34;;;30.26;67.06
36798;BME280;22748;8.426;99.512;2023-09-19T12:51:56;100700.75;;;30.27;67.29
36798;BME280;22748;8.426;99.512;2023-09-19T12:54:40;100706.16;;;30.27;67.14
36798;BME280;22748;8.426;99.512;2023-09-19T12:57:24;100713.66;;;30.25;67.24
36798;BME280;22748;8.426;99.512;2023-09-19T12:59:55;100709.91;;;30.26;67.29
36798;BME280;22748;8.426;99.512;2023-09-19T13:02:26;100715.28;;;30.26;67.36
36798;BME280;22748;8.426;99.512;2023-09-19T13:04:56;100720.47;;;30.27;66.95
36798;BME280;22748;8.426;99.512;2023-09-19T13:07:44;100728.75;;;30.26;67.36
36798;BME280;22748;8.426;99.512;2023-09-19T13:10:18;100731.47;;;30.26;67.27
36798;BME280;22748;8.426;99.512;2023-09-19T13:12:52;100744.31;;;30.24;67.09
36798;BME280;22748;8.426;99.512;2023-09-19T13:15:23;100744.31;;;30.24;67.07
36798;BME280;22748;8.426;99.512;2023-09-19T13:17:58;100734.59;;;30.23;67.36
36798;BME280;22748;8.426;99.512;2023-09-19T13:20:30;100737.28;;;30.23;67.36
36798;BME280;22748;8.426;99.512;2023-09-19T13:23:27;100736.22;;;30.24;67.30
36798;BME280;22748;8.426;99.512;2023-09-19T13:25:59;100741.81;;;30.22;67.05
36798;BME280;22748;8.426;99.512;2023-09-19T13:28:30;100746.41;;;30.22;67.29
36798;BME280;22748;8.426;99.512;2023-09-19T13:31:01;100755.53;;;30.21;67.44
36798;BME280;22748;8.426;99.512;2023-09-19T13:33:33;100752.00;;;30.20;67.28
36798;BME280;22748;8.426;99.512;2023-09-19T13:36:06;100755.13;;;30.17;67.21
36798;BME280;22748;8.426;99.512;2023-09-19T13:38:43;100760.06;;;30.20;67.53
36798;BME280;22748;8.426;99.512;2023-09-19T13:41:30;100762.56;;;30.22;67.47